Government of Jersey

Home Log in

METAR EGJJ 250420Z AUTO 18014KT 9000 SCT005/// 11/11 Q1010

METAR EGJB 250420Z 18014KT 9999 FEW004 SCT006 12/12 Q1009

METAR LFRD 250400Z AUTO 17013KT 6000 BKN029 OVC044 10/09 Q1011 TEMPO 4000 BR BKN003

METAR LFRC 250400Z AUTO 18012KT 9000 OVC007 08/08 Q1010